METAR Data

Data at: 2117 UTC 01 Dec 2021

METAR for:K1P1 (Plymouth Muni, NH, US)
Text:K1P1 012115Z AUTO 27004KT 10SM CLR 03/M05 A3006 RMK AO2 T00271050
Temperature: 2.7°C ( 37°F)
Dewpoint: -5.0°C ( 23°F) [RH = 57%]
Pressure (altimeter):30.06 inches Hg (1018.0 mb)
Winds:from the W (270 degrees) at 5 MPH (4 knots; 2.1 m/s)
Visibility:10 or more sm (16+ km)
Ceiling:at least 12,000 feet AGL
Clouds:sky clear below 12,000 feet AGL
QC Flag:automated observation with no human augmentation